Time;durP1;ratioP1;P1;durP2;ratioP2;P2;SDS_P1;SDS_P2;PMS_P1;PMS_P2;Temp;Humidity;BMP_temperature;BMP_pressure;BME280_temperature;BME280_humidity;BME280_pressure;Samples;Min_cycle;Max_cycle;Signal;HPM_P1;HPM_P2
2023/05/18 00:02:17;;;;;;;13.27;6.13;;;;;;;24.49;28.96;99823.88;4996961;28;20148;-72
2023/05/18 00:04:43;;;;;;;11.40;6.13;;;;;;;24.40;29.10;99826.13;5013311;28;20042;-72
2023/05/18 00:07:09;;;;;;;15.20;5.93;;;;;;;24.40;29.22;99825.34;4997071;28;20053;-72
2023/05/18 00:09:36;;;;;;;19.05;6.05;;;;;;;24.58;29.19;99823.25;4997172;28;20071;-73
2023/05/18 00:12:04;;;;;;;13.85;5.97;;;;;;;24.72;29.12;99829.22;4954922;28;20534;-71
2023/05/18 00:14:30;;;;;;;11.90;6.38;;;;;;;24.38;29.39;99833.72;4942183;28;20057;-72
2023/05/18 00:17:00;;;;;;;14.77;6.50;;;;;;;24.51;29.48;99825.28;4958195;28;20054;-72
2023/05/18 00:19:28;;;;;;;15.90;7.13;;;;;;;24.39;29.40;99829.94;4977767;28;20488;-72
2023/05/18 00:21:56;;;;;;;13.25;6.03;;;;;;;24.44;29.53;99838.19;4977951;28;20054;-72
2023/05/18 00:24:22;;;;;;;12.27;6.22;;;;;;;24.38;29.72;99835.59;4962244;28;20116;-72
2023/05/18 00:26:48;;;;;;;19.25;6.65;;;;;;;24.34;29.78;99831.75;4978097;28;20057;-73
2023/05/18 00:29:15;;;;;;;13.57;5.72;;;;;;;24.66;29.14;99835.63;4961941;28;20042;-73
2023/05/18 00:31:43;;;;;;;16.63;6.20;;;;;;;24.34;29.34;99831.75;4978070;28;20113;-72
2023/05/18 00:34:09;;;;;;;14.05;6.40;;;;;;;24.34;29.33;99829.03;4962147;28;20064;-72
2023/05/18 00:36:37;;;;;;;18.90;6.72;;;;;;;24.51;29.18;99822.56;4962168;28;20053;-72
2023/05/18 00:39:03;;;;;;;15.07;7.25;;;;;;;24.57;29.54;99835.16;4961503;28;20153;-72
2023/05/18 00:41:30;;;;;;;16.80;6.80;;;;;;;24.35;29.87;99830.66;4961578;28;20525;-73
2023/05/18 00:43:57;;;;;;;10.65;6.05;;;;;;;24.36;29.52;99826.88;5027986;28;20290;-72
2023/05/18 00:46:24;;;;;;;16.55;6.85;;;;;;;24.41;29.59;99829.69;5017673;28;20049;-72
2023/05/18 00:48:52;;;;;;;21.58;6.50;;;;;;;24.37;29.77;99828.53;5033791;28;20508;-72
2023/05/18 00:51:20;;;;;;;11.57;5.80;;;;;;;24.20;29.51;99830.38;5017705;28;20140;-72
2023/05/18 00:53:46;;;;;;;12.15;6.07;;;;;;;24.12;29.92;99828.88;5017771;28;20068;-72
2023/05/18 00:56:12;;;;;;;14.85;6.45;;;;;;;24.05;29.74;99830.06;5017669;28;20135;-72
2023/05/18 00:58:40;;;;;;;15.60;6.32;;;;;;;24.15;30.08;99841.13;5034142;28;20041;-72
2023/05/18 01:01:08;;;;;;;19.48;6.50;;;;;;;24.01;30.08;99842.44;5001830;28;20041;-72
2023/05/18 01:03:38;;;;;;;19.33;7.18;;;;;;;24.44;30.40;99837.34;5000395;28;20053;-72
2023/05/18 01:06:08;;;;;;;14.85;6.90;;;;;;;24.30;30.40;99831.38;4999606;28;20077;-73
2023/05/18 01:08:35;;;;;;;21.80;6.90;;;;;;;24.04;30.59;99837.38;5033370;28;20049;-72
2023/05/18 01:11:30;;;;;;;25.00;7.70;;;;;;;24.41;30.51;99835.13;5017390;28;20049;-71
2023/05/18 01:14:11;;;;;;;20.95;7.10;;;;;;;23.44;31.54;99836.00;5017276;28;20051;-72
2023/05/18 01:16:52;;;;;;;17.33;7.38;;;;;;;24.15;31.08;99838.41;5001340;28;20041;-72
2023/05/18 01:19:50;;;;;;;19.50;6.97;;;;;;;24.24;31.00;99850.53;5016735;28;20397;-71
2023/05/18 01:22:51;;;;;;;19.92;6.82;;;;;;;24.10;31.18;99847.28;5033400;28;20497;-72
2023/05/18 01:25:39;;;;;;;21.42;6.75;;;;;;;23.27;31.49;99846.75;5033298;28;20049;-71
2023/05/18 01:28:08;;;;;;;27.55;8.10;;;;;;;23.63;31.63;99847.56;5017222;28;20050;-71
2023/05/18 01:30:39;;;;;;;14.82;6.97;;;;;;;23.67;31.69;99833.28;5000628;28;20041;-71
2023/05/18 01:33:10;;;;;;;11.18;6.60;;;;;;;23.52;31.40;99840.25;5033821;28;20052;-71
2023/05/18 01:35:37;;;;;;;15.68;6.82;;;;;;;23.56;31.25;99842.25;5001019;28;20049;-71
2023/05/18 01:38:04;;;;;;;15.05;6.95;;;;;;;23.34;31.45;99834.94;5000752;28;20048;-71
2023/05/18 01:40:36;;;;;;;14.98;7.10;;;;;;;23.60;31.48;99835.31;5016743;28;20060;-71
2023/05/18 01:43:09;;;;;;;13.52;6.10;;;;;;;23.79;31.38;99842.22;5000499;28;20041;-72
2023/05/18 01:45:39;;;;;;;13.27;6.32;;;;;;;23.80;31.36;99837.63;5000703;28;20485;-72
2023/05/18 01:48:06;;;;;;;14.82;5.72;;;;;;;23.58;31.49;99837.41;5032945;28;20044;-72
2023/05/18 01:50:38;;;;;;;14.05;6.53;;;;;;;23.77;31.16;99844.34;4996204;28;20053;-71
2023/05/18 01:53:13;;;;;;;13.88;6.40;;;;;;;23.92;31.21;99839.25;4948179;28;20049;-72
2023/05/18 01:55:41;;;;;;;18.38;6.97;;;;;;;23.42;31.21;99840.03;4948389;28;20064;-72
2023/05/18 01:58:08;;;;;;;13.95;6.50;;;;;;;23.63;30.95;99844.84;4963883;28;20053;-72
2023/05/18 02:00:34;;;;;;;11.82;6.40;;;;;;;23.44;31.52;99835.19;4947736;28;20084;-72
2023/05/18 02:03:02;;;;;;;12.93;6.95;;;;;;;23.69;31.17;99838.47;4963816;28;20056;-72
2023/05/18 02:05:28;;;;;;;10.63;6.20;;;;;;;23.28;31.17;99834.81;4995658;28;20236;-72
2023/05/18 02:07:54;;;;;;;16.90;6.88;;;;;;;23.39;31.29;99835.09;4963768;28;20478;-72
2023/05/18 02:10:20;;;;;;;11.48;7.20;;;;;;;23.32;31.03;99837.91;4947925;28;20141;-72
2023/05/18 02:12:51;;;;;;;9.07;6.30;;;;;;;23.32;30.90;99837.91;4963658;28;20046;-72
2023/05/18 02:15:18;;;;;;;14.85;6.20;;;;;;;23.34;31.27;99843.09;4948733;28;20360;-72
2023/05/18 02:17:46;;;;;;;11.65;6.38;;;;;;;23.38;31.17;99847.81;4963561;28;20052;-72
2023/05/18 02:20:12;;;;;;;12.13;6.82;;;;;;;23.31;31.16;99846.28;4964068;28;20116;-72
2023/05/18 02:22:38;;;;;;;11.63;6.60;;;;;;;23.30;30.98;99848.16;4998858;28;20049;-72
2023/05/18 02:25:06;;;;;;;12.88;6.65;;;;;;;23.45;31.33;99847.69;5032399;28;20041;-72
2023/05/18 02:27:33;;;;;;;11.13;6.40;;;;;;;23.37;31.17;99846.16;5031947;28;20516;-71
2023/05/18 02:29:59;;;;;;;10.40;6.15;;;;;;;23.34;31.10;99848.50;4999600;28;20045;-72
2023/05/18 02:32:26;;;;;;;14.05;5.85;;;;;;;23.22;31.15;99846.56;5014868;28;20412;-72
2023/05/18 02:34:52;;;;;;;10.20;5.65;;;;;;;23.44;31.28;99849.56;4998366;28;20041;-73
2023/05/18 02:37:21;;;;;;;16.65;6.15;;;;;;;23.27;30.83;99849.44;4972258;28;20065;-72
2023/05/18 02:39:48;;;;;;;15.20;5.93;;;;;;;23.27;30.84;99848.63;4940585;28;20529;-72
2023/05/18 02:42:15;;;;;;;13.55;6.07;;;;;;;23.49;31.24;99855.13;4939408;28;20149;-73
2023/05/18 02:44:41;;;;;;;12.85;6.57;;;;;;;23.26;31.14;99857.81;4940597;28;20041;-72
2023/05/18 02:47:07;;;;;;;9.85;6.63;;;;;;;23.28;31.08;99848.38;4972059;28;20431;-72
2023/05/18 02:49:37;;;;;;;17.55;6.45;;;;;;;23.44;31.01;99852.28;4955569;28;20054;-72
2023/05/18 02:52:03;;;;;;;14.50;6.72;;;;;;;23.44;31.10;99856.88;4940463;28;20053;-72
2023/05/18 02:54:30;;;;;;;13.43;5.95;;;;;;;23.41;31.13;99857.34;4972018;28;20094;-72
2023/05/18 02:56:58;;;;;;;10.63;6.72;;;;;;;23.27;31.51;99854.03;4955671;28;20054;-72
2023/05/18 02:59:42;;;;;;;11.02;6.18;;;;;;;23.42;31.11;99854.38;4940212;28;20055;-72
2023/05/18 03:02:09;;;;;;;17.48;6.97;;;;;;;23.66;31.15;99847.91;4955533;28;20047;-72
2023/05/18 03:04:36;;;;;;;11.65;6.55;;;;;;;23.44;31.30;99849.56;4939945;28;20046;-72
2023/05/18 03:07:06;;;;;;;15.00;6.05;;;;;;;23.45;31.01;99853.91;4939900;28;20065;-72
2023/05/18 03:09:32;;;;;;;16.52;6.50;;;;;;;23.52;30.96;99854.63;4924152;28;20137;-72
2023/05/18 03:11:59;;;;;;;11.90;6.25;;;;;;;23.54;30.45;99857.13;4958682;28;20082;-72
2023/05/18 03:14:24;;;;;;;11.98;6.93;;;;;;;23.52;31.16;99862.78;4950173;28;20054;-72
2023/05/18 03:16:53;;;;;;;14.88;6.50;;;;;;;23.59;30.64;99860.75;4977994;28;20061;-72
2023/05/18 03:19:19;;;;;;;16.73;6.55;;;;;;;23.59;30.57;99859.94;4978186;28;20058;-72
2023/05/18 03:21:48;;;;;;;14.27;6.88;;;;;;;23.60;30.57;99865.13;4978410;28;20052;-72
2023/05/18 03:24:14;;;;;;;10.63;6.00;;;;;;;23.70;30.28;99868.06;4962589;28;20061;-72
2023/05/18 03:26:43;;;;;;;11.25;6.05;;;;;;;23.75;29.99;99865.47;4994141;28;20049;-72
2023/05/18 03:29:12;;;;;;;12.27;6.10;;;;;;;24.00;29.86;99874.19;4994169;28;20042;-72
2023/05/18 03:31:39;;;;;;;11.05;5.95;;;;;;;24.00;29.53;99868.75;4977727;28;20493;-73
2023/05/18 03:34:05;;;;;;;16.70;6.13;;;;;;;24.17;29.52;99872.38;4977844;28;20136;-72
2023/05/18 03:36:31;;;;;;;12.80;6.32;;;;;;;24.09;29.56;99877.38;4993915;28;20478;-71
2023/05/18 03:38:58;;;;;;;11.30;6.10;;;;;;;24.01;29.90;99870.41;4977774;28;20129;-70
2023/05/18 03:41:26;;;;;;;13.40;6.50;;;;;;;24.15;29.49;99876.41;4993769;28;20061;-71
2023/05/18 03:43:53;;;;;;;16.10;6.45;;;;;;;24.15;29.97;99876.41;4981131;28;20144;-72
2023/05/18 03:46:19;;;;;;;13.57;6.70;;;;;;;24.11;29.83;99876.03;4980940;28;20188;-72
2023/05/18 03:48:45;;;;;;;20.63;7.45;;;;;;;24.13;30.26;99879.34;4965397;28;20119;-74
2023/05/18 03:51:11;;;;;;;15.93;7.03;;;;;;;24.06;30.42;99875.13;5014698;28;20611;-72
2023/05/18 03:53:38;;;;;;;12.48;6.43;;;;;;;24.13;30.19;99881.22;5030722;28;20156;-73
2023/05/18 03:56:05;;;;;;;19.23;6.22;;;;;;;24.08;30.21;99881.16;4997311;28;20127;-76
2023/05/18 03:58:31;;;;;;;17.33;6.93;;;;;;;24.10;29.81;99882.56;4965126;28;20068;-71
2023/05/18 04:00:57;;;;;;;12.77;6.38;;;;;;;24.29;30.09;99885.94;4997113;28;20264;-69
2023/05/18 04:03:25;;;;;;;12.63;6.68;;;;;;;24.27;30.00;99885.34;4997102;28;20037;-69
2023/05/18 04:05:52;;;;;;;15.00;6.18;;;;;;;24.49;29.78;99889.84;4996783;28;20049;-68
2023/05/18 04:08:19;;;;;;;14.70;6.32;;;;;;;24.61;29.60;99887.09;4991564;28;20068;-69
2023/05/18 04:10:45;;;;;;;12.68;6.35;;;;;;;24.50;29.68;99891.53;4960293;28;20054;-66
2023/05/18 04:13:11;;;;;;;14.15;6.50;;;;;;;24.66;29.70;99889.97;4975262;28;20049;-68
2023/05/18 04:15:37;;;;;;;14.20;5.72;;;;;;;24.72;29.34;99886.28;4976250;28;20474;-67
2023/05/18 04:18:03;;;;;;;8.93;5.50;;;;;;;24.89;29.14;99884.41;5009864;28;20097;-68
2023/05/18 04:20:29;;;;;;;13.00;6.03;;;;;;;24.86;29.16;99890.34;5009527;28;20073;-69
2023/05/18 04:22:56;;;;;;;17.55;6.13;;;;;;;25.04;28.74;99892.84;4993611;28;20441;-67
2023/05/18 04:25:28;;;;;;;18.20;6.47;;;;;;;25.21;28.82;99881.97;4993941;28;20045;-67
2023/05/18 04:27:55;;;;;;;12.93;6.47;;;;;;;25.46;29.33;99890.56;5025321;28;20080;-70
2023/05/18 04:30:25;;;;;;;12.80;6.15;;;;;;;25.66;28.78;99897.13;4977779;28;20080;-67
2023/05/18 04:32:53;;;;;;;20.20;6.43;;;;;;;25.41;28.67;99893.19;4950112;28;20131;-66
2023/05/18 04:35:19;;;;;;;21.20;6.70;;;;;;;25.46;29.07;99885.97;5013251;28;20053;-68
2023/05/18 04:37:45;;;;;;;16.17;6.30;;;;;;;25.62;28.55;99893.28;4996611;28;20048;-66
2023/05/18 04:40:16;;;;;;;10.55;6.88;;;;;;;25.65;28.96;99894.66;4996334;28;20187;-67
2023/05/18 04:42:46;;;;;;;21.08;5.88;;;;;;;26.35;27.99;99891.03;5031388;28;20049;-72
2023/05/18 04:45:15;;;;;;;15.80;5.95;;;;;;;26.02;28.08;99893.88;5030617;28;20110;-67
2023/05/18 04:47:46;;;;;;;18.40;5.93;;;;;;;26.12;28.26;99882.31;5014016;28;20045;-66
2023/05/18 04:50:16;;;;;;;19.75;6.53;;;;;;;26.35;28.19;99891.03;5063000;28;20107;-66
2023/05/18 04:52:49;;;;;;;15.32;5.95;;;;;;;26.63;28.10;99879.16;4995901;28;20583;-67
2023/05/18 04:55:24;;;;;;;13.30;5.93;;;;;;;26.67;28.06;99891.19;4997098;28;20481;-66
2023/05/18 04:57:55;;;;;;;28.05;5.85;;;;;;;26.71;27.91;99877.88;5013230;28;20068;-66
2023/05/18 05:00:23;;;;;;;14.18;6.38;;;;;;;26.88;27.42;99881.31;5029583;28;20133;-68
2023/05/18 05:02:50;;;;;;;15.07;6.00;;;;;;;26.82;27.12;99885.88;5012343;28;20451;-66
2023/05/18 05:05:17;;;;;;;23.63;6.50;;;;;;;26.78;27.68;99881.19;5011761;28;20049;-68
2023/05/18 05:07:43;;;;;;;15.98;6.20;;;;;;;27.03;27.33;99886.91;5016906;28;20049;-68
2023/05/18 05:10:09;;;;;;;17.75;6.30;;;;;;;27.02;27.41;99875.16;5033940;28;20048;-67
2023/05/18 05:12:36;;;;;;;20.83;6.22;;;;;;;27.46;27.20;99875.84;5032406;28;20138;-69
2023/05/18 05:15:03;;;;;;;10.98;5.88;;;;;;;27.35;27.12;99879.56;5032542;28;20053;-73
2023/05/18 05:17:31;;;;;;;22.35;6.40;;;;;;;27.40;27.31;99885.09;4984859;28;20422;-66
2023/05/18 05:19:57;;;;;;;20.63;6.10;;;;;;;27.50;27.14;99883.25;5032698;28;20165;-68
2023/05/18 05:22:23;;;;;;;20.58;6.90;;;;;;;27.66;27.17;99887.72;4999973;28;20481;-69
2023/05/18 05:24:50;;;;;;;31.05;6.75;;;;;;;27.74;27.13;99886.38;5016924;28;20135;-68
2023/05/18 05:27:16;;;;;;;16.75;6.18;;;;;;;27.87;26.83;99891.44;5016264;28;20047;-70
2023/05/18 05:29:44;;;;;;;15.57;6.00;;;;;;;28.26;27.06;99875.53;5016457;28;20072;-71
2023/05/18 05:32:11;;;;;;;16.40;6.30;;;;;;;27.99;26.51;99892.88;4999564;28;20107;-68
2023/05/18 19:57:16;;;;;;;12.68;4.03;;;;;;;26.96;40.27;99898.03;5149996;27;20390;-68
2023/05/18 19:59:43;;;;;;;8.70;3.83;;;;;;;28.16;35.20;99892.69;5094533;28;20876;-68
2023/05/18 20:02:09;;;;;;;12.00;3.60;;;;;;;28.87;33.27;99904.69;5060986;28;20043;-69
2023/05/18 20:04:34;;;;;;;7.20;3.17;;;;;;;29.35;31.93;99907.78;5093767;28;20032;-68
2023/05/18 20:07:00;;;;;;;12.77;3.70;;;;;;;29.87;30.96;99914.91;5077476;28;20039;-69
2023/05/18 20:09:27;;;;;;;6.90;3.63;;;;;;;29.95;30.66;99906.13;5094104;28;20504;-68
2023/05/18 20:11:54;;;;;;;12.35;4.00;;;;;;;30.09;30.22;99902.50;5076839;28;20150;-69
2023/05/18 20:14:23;;;;;;;10.85;3.72;;;;;;;30.21;30.12;99902.22;5077513;28;20047;-69
2023/05/18 20:16:59;;;;;;;12.55;3.83;;;;;;;30.62;29.35;99904.53;5060798;28;20046;-69
2023/05/18 20:19:26;;;;;;;10.07;4.13;;;;;;;30.20;29.95;99901.41;5077239;28;20054;-69
2023/05/18 20:21:52;;;;;;;9.73;4.57;;;;;;;30.31;29.59;99903.00;5077339;28;20096;-69
2023/05/18 20:24:18;;;;;;;11.13;4.78;;;;;;;30.27;29.62;99907.44;5076873;28;20042;-68
2023/05/18 20:26:49;;;;;;;10.45;3.97;;;;;;;30.53;29.21;99903.47;5061390;28;20172;-68
2023/05/18 20:29:16;;;;;;;12.40;4.00;;;;;;;30.24;29.24;99905.25;5076864;28;20070;-68
2023/05/18 20:31:44;;;;;;;11.68;3.90;;;;;;;30.39;29.27;99902.44;5073655;28;20035;-69
2023/05/18 20:34:40;;;;;;;15.93;3.88;;;;;;;30.56;28.69;99902.91;5052748;28;20149;-69
2023/05/18 20:37:07;;;;;;;12.45;4.50;;;;;;;30.35;29.31;99908.75;5031978;28;20056;-68
2023/05/18 20:39:33;;;;;;;12.07;3.72;;;;;;;30.17;29.36;99906.63;5015765;28;20056;-69
2023/05/18 20:42:01;;;;;;;9.95;4.53;;;;;;;30.25;29.66;99904.13;5031996;28;20056;-69
2023/05/18 20:44:30;;;;;;;10.27;3.85;;;;;;;30.22;29.46;99912.91;5015918;28;20571;-69
2023/05/18 20:46:59;;;;;;;11.63;3.78;;;;;;;30.14;29.40;99905.22;5016342;28;20135;-69
2023/05/18 20:49:26;;;;;;;9.25;3.40;;;;;;;30.13;29.86;99895.38;5015751;28;20156;-73
2023/05/18 20:51:53;;;;;;;16.55;4.53;;;;;;;30.07;29.77;99906.63;5017210;28;20091;-69
2023/05/18 20:54:23;;;;;;;13.90;4.88;;;;;;;30.33;29.08;99903.56;4996457;28;20045;-70
2023/05/18 20:56:50;;;;;;;15.77;4.40;;;;;;;30.33;29.12;99909.03;5014353;28;20060;-70
2023/05/18 20:59:19;;;;;;;13.90;4.13;;;;;;;29.99;29.89;99909.94;5004427;28;20153;-69
2023/05/18 21:01:49;;;;;;;11.70;4.07;;;;;;;29.99;29.84;99907.19;4954989;28;20177;-69
2023/05/18 21:04:19;;;;;;;9.13;3.78;;;;;;;30.19;29.86;99907.13;4985809;28;20084;-69
2023/05/18 21:06:45;;;;;;;8.75;3.78;;;;;;;29.80;30.00;99908.91;4913182;29;20063;-69
2023/05/18 21:09:14;;;;;;;12.05;4.85;;;;;;;29.60;30.73;99898.75;4919556;29;20052;-68
2023/05/18 21:11:40;;;;;;;14.38;4.68;;;;;;;29.09;31.19;99897.91;4935792;29;20087;-69
2023/05/18 21:14:11;;;;;;;7.90;4.82;;;;;;;28.94;31.86;99900.63;4919642;29;20059;-69
2023/05/18 21:16:37;;;;;;;22.02;6.00;;;;;;;28.54;32.25;99903.25;4867881;29;20172;-69
2023/05/18 21:19:04;;;;;;;12.73;5.65;;;;;;;28.33;32.58;99904.22;4885063;29;20179;-68
2023/05/18 21:21:30;;;;;;;12.20;4.80;;;;;;;28.11;33.06;99898.09;4885001;29;20060;-69
2023/05/18 21:23:56;;;;;;;13.52;4.60;;;;;;;27.91;33.42;99901.56;4881230;28;20055;-70
2023/05/18 21:26:35;;;;;;;10.48;4.70;;;;;;;28.08;33.83;99904.09;4956413;28;20053;-69
2023/05/18 21:29:06;;;;;;;14.25;5.00;;;;;;;27.71;34.24;99895.94;4873063;29;20188;-69
2023/05/18 21:31:34;;;;;;;12.02;4.80;;;;;;;27.48;34.86;99896.31;4934745;28;20106;-68
2023/05/18 21:34:00;;;;;;;14.55;4.72;;;;;;;27.37;35.29;99899.25;4927733;28;20069;-68
2023/05/18 21:36:32;;;;;;;11.52;6.65;;;;;;;27.49;35.87;99891.69;4943274;28;20108;-69
2023/05/18 21:39:03;;;;;;;18.20;5.88;;;;;;;27.32;36.09;99891.00;4947985;28;20073;-69
2023/05/18 21:41:33;;;;;;;9.88;4.50;;;;;;;27.07;36.35;99893.47;4950842;28;20424;-69
2023/05/18 21:43:59;;;;;;;11.98;5.03;;;;;;;27.02;36.40;99896.16;4939052;28;20061;-69
2023/05/18 21:46:26;;;;;;;15.05;4.88;;;;;;;27.08;36.77;99900.56;4909657;28;20097;-68
2023/05/18 21:48:51;;;;;;;12.07;4.70;;;;;;;26.98;36.62;99900.47;4910119;28;20047;-68
2023/05/18 21:51:17;;;;;;;11.13;4.95;;;;;;;26.98;36.81;99903.22;4925227;28;20137;-68
2023/05/18 21:53:43;;;;;;;13.55;5.30;;;;;;;26.82;37.14;99895.94;4925301;28;20397;-68
2023/05/18 21:56:09;;;;;;;28.35;6.00;;;;;;;26.71;37.57;99902.41;4924955;28;20058;-68
2023/05/18 21:58:35;;;;;;;16.80;5.18;;;;;;;26.70;37.40;99903.47;4925274;28;20050;-68
2023/05/18 22:01:01;;;;;;;8.15;5.07;;;;;;;26.63;37.78;99903.69;4925262;28;20051;-68
2023/05/18 22:03:27;;;;;;;26.33;5.90;;;;;;;26.55;38.11;99892.38;4925101;28;20061;-68
2023/05/18 22:05:54;;;;;;;9.00;5.03;;;;;;;26.65;38.36;99906.16;4925497;28;20113;-68
2023/05/18 22:08:20;;;;;;;10.65;5.25;;;;;;;26.48;38.48;99901.56;4940828;28;20142;-68
2023/05/18 22:10:46;;;;;;;10.23;4.97;;;;;;;26.70;38.43;99906.19;4940883;28;20126;-68
2023/05/18 22:13:18;;;;;;;8.15;4.78;;;;;;;26.86;38.27;99899.81;4925002;28;20067;-69
2023/05/18 22:15:47;;;;;;;13.95;5.15;;;;;;;26.65;38.03;99900.69;4950249;28;20147;-68
2023/05/18 22:18:13;;;;;;;9.77;5.13;;;;;;;26.57;38.33;99899.19;4978991;28;20080;-68
2023/05/18 22:20:40;;;;;;;9.25;4.82;;;;;;;26.48;38.61;99901.56;4962389;28;20089;-69
2023/05/18 22:23:10;;;;;;;9.77;5.75;;;;;;;26.46;39.21;99903.69;4995645;28;20077;-68
2023/05/18 22:25:36;;;;;;;14.88;5.68;;;;;;;26.43;39.11;99896.03;4978001;28;20046;-68
2023/05/18 22:28:02;;;;;;;9.93;5.47;;;;;;;26.48;39.24;99897.19;4995427;28;20391;-68
2023/05/18 22:30:27;;;;;;;8.13;4.85;;;;;;;26.47;38.91;99901.81;4979110;28;20056;-68
2023/05/18 22:32:56;;;;;;;9.65;5.72;;;;;;;26.52;38.92;99902.69;5016917;28;20045;-68
2023/05/18 22:35:22;;;;;;;11.65;5.85;;;;;;;26.46;39.05;99898.25;5022383;28;20036;-68
2023/05/18 22:37:48;;;;;;;8.65;5.57;;;;;;;26.48;39.23;99898.84;5006216;28;20538;-68
2023/05/18 22:40:14;;;;;;;9.35;5.40;;;;;;;26.55;39.18;99901.38;5022291;28;20478;-68
2023/05/18 22:42:40;;;;;;;8.27;5.35;;;;;;;26.49;39.12;99897.75;5038680;28;20040;-68
2023/05/18 22:45:08;;;;;;;10.30;5.90;;;;;;;26.41;39.94;99895.50;5006012;28;20059;-69
2023/05/18 22:47:34;;;;;;;10.13;5.63;;;;;;;26.31;40.16;99898.06;5006014;28;20047;-68
2023/05/18 22:50:00;;;;;;;17.35;6.40;;;;;;;26.22;40.41;99896.03;5022109;28;20032;-69
2023/05/18 22:52:26;;;;;;;11.98;5.88;;;;;;;26.24;39.94;99900.19;5022606;28;20051;-68
2023/05/18 22:54:52;;;;;;;13.00;6.03;;;;;;;26.24;40.54;99908.34;5022007;28;20036;-69
2023/05/18 22:57:20;;;;;;;13.77;6.20;;;;;;;26.25;40.38;99901.81;5022505;28;20060;-68
2023/05/18 22:59:46;;;;;;;10.07;6.28;;;;;;;26.26;40.60;99900.72;5037958;28;20114;-68
2023/05/18 23:02:12;;;;;;;11.73;6.35;;;;;;;26.26;40.28;99908.91;5021889;28;20044;-68
2023/05/18 23:04:37;;;;;;;13.70;6.22;;;;;;;26.29;40.47;99910.31;5021777;28;20044;-68
2023/05/18 23:07:04;;;;;;;10.23;6.00;;;;;;;26.34;40.26;99900.28;5038317;28;20048;-68
2023/05/18 23:09:30;;;;;;;14.38;6.95;;;;;;;26.29;40.58;99902.94;5022018;28;20048;-69
2023/05/18 23:11:59;;;;;;;9.77;6.43;;;;;;;26.52;40.54;99901.03;5022041;28;20036;-69
2023/05/18 23:14:29;;;;;;;12.32;7.03;;;;;;;26.34;40.39;99902.19;5038653;28;20131;-69
2023/05/18 23:16:57;;;;;;;10.00;6.40;;;;;;;26.37;40.80;99894.34;5022711;28;20044;-69
2023/05/18 23:19:25;;;;;;;12.45;6.90;;;;;;;26.40;40.97;99895.75;5021570;28;20135;-69
2023/05/18 23:21:52;;;;;;;8.95;6.18;;;;;;;26.58;40.43;99906.31;5038012;28;20052;-69
2023/05/18 23:24:18;;;;;;;9.57;6.50;;;;;;;26.51;39.84;99905.66;5021697;28;20036;-69
2023/05/18 23:26:44;;;;;;;10.88;6.82;;;;;;;26.54;40.59;99899.69;5005245;28;20135;-69
2023/05/18 23:29:10;;;;;;;10.30;7.65;;;;;;;26.67;40.26;99893.91;5021454;28;20143;-68
2023/05/18 23:31:36;;;;;;;9.38;6.55;;;;;;;26.78;39.57;99908.47;5021465;28;20549;-68
2023/05/18 23:34:03;;;;;;;10.93;6.82;;;;;;;26.76;39.68;99908.72;4997601;28;20140;-68
2023/05/18 23:36:33;;;;;;;11.52;7.07;;;;;;;26.92;40.22;99901.50;4997527;28;20151;-69
2023/05/18 23:39:02;;;;;;;12.80;7.00;;;;;;;26.82;40.26;99904.13;4974767;28;20477;-68
2023/05/18 23:41:31;;;;;;;11.80;7.28;;;;;;;26.95;39.94;99899.09;4943833;28;20067;-68
2023/05/18 23:43:58;;;;;;;11.05;7.45;;;;;;;26.89;39.31;99897.41;4942921;28;20054;-69
2023/05/18 23:46:24;;;;;;;12.95;7.18;;;;;;;26.91;39.76;99899.88;4974414;28;20054;-69
2023/05/18 23:48:51;;;;;;;10.80;6.63;;;;;;;26.96;39.23;99891.72;4974467;28;20200;-69
2023/05/18 23:51:19;;;;;;;9.93;6.80;;;;;;;27.01;39.59;99898.06;4974453;28;20154;-69
2023/05/18 23:53:46;;;;;;;11.57;7.18;;;;;;;27.05;39.29;99901.91;4919956;28;20102;-69
2023/05/18 23:56:13;;;;;;;9.63;7.22;;;;;;;27.03;39.26;99895.09;4900956;29;20059;-69
2023/05/18 23:58:42;;;;;;;12.00;7.47;;;;;;;27.01;39.62;99895.34;4901408;29;20052;-68
